Portada
METAR-TAF:

METAR-TAF

Aeropuertos :

Aeropuerto de Alicante-Elche

Alicante, España

latitud: 38-17N, longitud: 000-33W, altitud: 43 m

Observación

El informe se hizo hace 33 minutos, a las 04:30 UTC
Viento 6 kt del oeste
Temperatura 7°C
Humedad 66%
Presión 1017 hPa
Visibilidad 10 km o más
sin nubes por debajo de 1500 m y sin presencia de cumulonimbus.

METAR: LEAL 040430Z 28006KT CAVOK 07/01 Q1017 NOSIG

Hora: 06:03 (05:03 UTC)

Pronóstico

El informe se hizo hace 6 horas y 3 minutos, a las 23:00 UTC
Pronóstico válido del 04 a las 00 UTC al 04 a las 24 UTC
Viento 11 kt del oeste-noroeste
Visibilidad 10 km o más
Escasas nubes a una altura de 3000 ft
Temporalmente
del 04 a las 00 UTC al 04 a las 12 UTC
Viento 6 kt del suroeste
Temporalmente
del 04 a las 12 UTC al 04 a las 18 UTC
Viento 15 kt del oeste-noroeste con ráfagas de 25 kt

TAF: LEAL 032300Z 0400/0424 29011KT 9999 FEW030 TX21/0413Z TN08/0406Z TEMPO 0400/0412 23006KT TEMPO 0412/0418 29015G25KT

Observaciones y pronósticos meteorológicos de más de 4000 aeropuertos (mensajes METAR y TAF).

Los puntos amarillos y rojos representan las estaciones disponibles.

Ponga el ratón en el punto deseado para ver el nombre de la estación.

Haga clic para ver las observaciones y los pronósticos meteorológicos.

Para cambiar el mapa : haga clic en los botones verdes con una cruz de color negro para hacer un zoom, en el botón verde con un guión para alejar o en las flechas verdes para mapas adyacentes.


METAR-TAF: